Time;durP1;ratioP1;P1;durP2;ratioP2;P2;SDS_P1;SDS_P2;PMS_P1;PMS_P2;Temp;Humidity;BMP_temperature;BMP_pressure;BME280_temperature;BME280_humidity;BME280_pressure;Samples;Min_cycle;Max_cycle;Signal;HPM_P1;HPM_P2
2024/03/06 00:01:56;;;;;;;14.48;12.23;;;;;;;;;;4939006;29;20426;-49
2024/03/06 00:04:22;;;;;;;15.82;13.00;;;;;;;;;;4953850;29;20035;-48
2024/03/06 00:06:51;;;;;;;16.42;12.00;;;;;;;;;;4951396;28;20101;-52
2024/03/06 00:09:18;;;;;;;15.30;12.27;;;;;;;;;;4937803;29;20032;-49
2024/03/06 00:11:45;;;;;;;13.05;10.68;;;;;;;;;;4942785;29;20036;-49
2024/03/06 00:14:12;;;;;;;12.43;9.90;;;;;;;;;;4939545;29;20047;-49
2024/03/06 00:16:38;;;;;;;;;;;;;;;;;;4949173;28;20039;-48
2024/03/06 00:19:04;;;;;;;8.80;7.40;;;;;;;;;;4951037;28;20009;-53
2024/03/06 00:21:31;;;;;;;8.97;8.03;;;;;;;;;;4945184;29;20034;-48
2024/03/06 00:23:57;;;;;;;7.55;6.75;;;;;;;;;;4954654;29;20028;-54
2024/03/06 00:26:23;;;;;;;7.45;6.75;;;;;;;;;;4936849;29;20040;-53
2024/03/06 00:28:49;;;;;;;6.55;5.85;;;;;;;;;;4935779;29;20068;-55
2024/03/06 00:31:16;;;;;;;7.53;6.57;;;;;;;;;;4937951;29;20078;-50
2024/03/06 00:33:42;;;;;;;6.90;5.82;;;;;;;;;;4935793;29;20618;-49
2024/03/06 00:36:08;;;;;;;9.82;6.45;;;;;;;;;;4941931;29;20394;-49
2024/03/06 00:38:35;;;;;;;8.47;6.07;;;;;;;;;;4954617;29;20034;-48
2024/03/06 00:41:01;;;;;;;6.63;6.03;;;;;;;;;;4949909;28;20578;-48
2024/03/06 00:43:27;;;;;;;6.18;5.57;;;;;;;;;;4936727;29;20063;-49
2024/03/06 00:45:53;;;;;;;8.35;5.95;;;;;;;;;;4940416;28;20041;-49
2024/03/06 00:48:20;;;;;;;5.97;5.00;;;;;;;;;;4944648;29;20027;-49
2024/03/06 00:50:46;;;;;;;11.23;6.60;;;;;;;;;;4940148;29;20030;-52
2024/03/06 00:53:12;;;;;;;5.22;4.70;;;;;;;;;;4935652;29;20380;-48
2024/03/06 00:55:39;;;;;;;4.70;4.30;;;;;;;;;;4935303;29;20027;-48
2024/03/06 00:58:09;;;;;;;4.23;3.83;;;;;;;;;;4937217;29;20164;-49
2024/03/06 01:00:35;;;;;;;5.18;3.63;;;;;;;;;;4938118;29;20030;-50
2024/03/06 01:03:01;;;;;;;3.25;2.83;;;;;;;;;;4936146;29;20413;-48
2024/03/06 01:05:27;;;;;;;6.47;3.58;;;;;;;;;;4952871;28;20023;-50
2024/03/06 01:07:54;;;;;;;3.53;2.97;;;;;;;;;;4954168;29;20122;-49
2024/03/06 01:10:20;;;;;;;3.67;3.30;;;;;;;;;;4954028;29;20481;-50
2024/03/06 01:12:47;;;;;;;4.75;2.90;;;;;;;;;;4935380;29;20498;-49
2024/03/06 01:15:13;;;;;;;5.93;2.90;;;;;;;;;;4936929;29;20094;-48
2024/03/06 01:17:39;;;;;;;3.33;3.03;;;;;;;;;;4952471;28;20034;-48
2024/03/06 01:20:09;;;;;;;4.00;3.33;;;;;;;;;;4936078;28;20483;-48
2024/03/06 01:22:35;;;;;;;5.13;2.63;;;;;;;;;;4950914;29;20595;-48
2024/03/06 01:25:02;;;;;;;2.53;2.33;;;;;;;;;;4953844;28;20031;-49
2024/03/06 01:27:28;;;;;;;2.20;2.00;;;;;;;;;;4952668;28;20039;-48
2024/03/06 01:29:54;;;;;;;2.27;1.70;;;;;;;;;;4951873;28;20397;-55
2024/03/06 01:32:21;;;;;;;2.17;1.30;;;;;;;;;;4938160;29;20047;-54
2024/03/06 01:34:47;;;;;;;2.08;1.50;;;;;;;;;;4935882;29;20027;-50
2024/03/06 01:37:13;;;;;;;2.38;1.40;;;;;;;;;;4934480;29;20516;-49
2024/03/06 01:39:39;;;;;;;1.80;1.10;;;;;;;;;;4934660;29;20067;-53
2024/03/06 01:42:05;;;;;;;2.15;1.17;;;;;;;;;;4946708;29;20082;-48
2024/03/06 01:44:32;;;;;;;1.58;1.48;;;;;;;;;;4952257;28;20447;-49
2024/03/06 01:46:58;;;;;;;1.98;1.65;;;;;;;;;;4938395;29;20034;-49
2024/03/06 01:49:25;;;;;;;2.30;1.77;;;;;;;;;;4934581;29;20031;-49
2024/03/06 01:51:56;;;;;;;3.80;1.83;;;;;;;;;;4945399;29;20078;-48
2024/03/06 01:54:23;;;;;;;3.00;1.58;;;;;;;;;;4953479;29;20031;-48
2024/03/06 01:56:50;;;;;;;2.22;2.03;;;;;;;;;;4953114;28;20032;-49
2024/03/06 01:59:16;;;;;;;;;;;;;;;;;;4953048;29;20030;-51
2024/03/06 02:01:43;;;;;;;1.42;1.25;;;;;;;;;;4942727;29;19996;-48
2024/03/06 02:04:09;;;;;;;5.27;1.60;;;;;;;;;;4953678;28;20075;-47
2024/03/06 02:06:36;;;;;;;2.53;1.50;;;;;;;;;;4942334;29;20376;-48
2024/03/06 02:09:06;;;;;;;1.88;1.70;;;;;;;;;;4934498;29;20114;-49
2024/03/06 02:11:32;;;;;;;2.33;1.33;;;;;;;;;;4944702;29;20042;-48
2024/03/06 02:13:59;;;;;;;1.90;1.77;;;;;;;;;;4934783;29;20114;-48
2024/03/06 02:16:26;;;;;;;1.87;1.60;;;;;;;;;;4947899;28;20521;-48
2024/03/06 02:18:56;;;;;;;2.30;1.75;;;;;;;;;;4956170;29;20301;-48
2024/03/06 02:21:23;;;;;;;4.05;1.88;;;;;;;;;;4943272;28;20034;-48
2024/03/06 02:23:53;;;;;;;2.05;1.90;;;;;;;;;;4956037;29;20027;-48
2024/03/06 02:26:20;;;;;;;2.63;2.00;;;;;;;;;;4944564;29;20093;-54
2024/03/06 02:28:49;;;;;;;3.33;1.45;;;;;;;;;;4957203;28;20031;-50
2024/03/06 02:31:16;;;;;;;1.95;1.70;;;;;;;;;;4949208;29;20094;-50
2024/03/06 02:33:44;;;;;;;3.65;1.75;;;;;;;;;;4953589;29;20085;-52
2024/03/06 02:36:11;;;;;;;1.85;1.50;;;;;;;;;;4938136;29;20034;-49
2024/03/06 02:38:37;;;;;;;;;;;;;;;;;;4938361;29;20047;-49
2024/03/06 02:41:06;;;;;;;3.63;1.60;;;;;;;;;;4936640;29;19918;-49
2024/03/06 02:43:32;;;;;;;1.80;1.70;;;;;;;;;;4952309;29;20020;-52
2024/03/06 02:45:58;;;;;;;2.00;1.70;;;;;;;;;;4953999;28;20487;-48
2024/03/06 02:48:24;;;;;;;4.35;1.63;;;;;;;;;;4956590;29;20023;-48
2024/03/06 02:50:51;;;;;;;2.20;1.98;;;;;;;;;;4943694;29;20028;-48
2024/03/06 02:53:17;;;;;;;1.75;1.65;;;;;;;;;;4948791;29;20505;-48
2024/03/06 02:55:43;;;;;;;2.58;2.38;;;;;;;;;;4956575;28;20031;-48
2024/03/06 02:58:09;;;;;;;2.63;1.88;;;;;;;;;;4956183;29;20042;-48
2024/03/06 03:00:36;;;;;;;2.67;2.05;;;;;;;;;;4952151;29;20481;-48
2024/03/06 03:03:02;;;;;;;3.83;2.20;;;;;;;;;;4947008;29;20039;-48
2024/03/06 03:05:28;;;;;;;4.93;2.08;;;;;;;;;;4956305;28;20042;-50
2024/03/06 03:07:54;;;;;;;2.88;2.13;;;;;;;;;;4946019;29;20071;-50
2024/03/06 03:10:21;;;;;;;3.50;2.13;;;;;;;;;;4937325;29;20459;-48
2024/03/06 03:12:47;;;;;;;1.88;1.77;;;;;;;;;;4942364;29;20083;-49
2024/03/06 03:15:13;;;;;;;2.53;2.33;;;;;;;;;;4951754;29;20529;-48
2024/03/06 03:17:39;;;;;;;2.20;2.00;;;;;;;;;;4938137;29;20024;-49
2024/03/06 03:20:10;;;;;;;4.03;2.33;;;;;;;;;;4937255;29;20443;-49
2024/03/06 03:22:42;;;;;;;3.80;2.80;;;;;;;;;;4943629;29;20089;-48
2024/03/06 03:25:10;;;;;;;4.18;2.15;;;;;;;;;;4937181;29;20028;-52
2024/03/06 03:27:36;;;;;;;;;;;;;;;;;;4935389;29;20469;-51
2024/03/06 03:30:02;;;;;;;2.25;1.52;;;;;;;;;;4938877;29;19910;-51
2024/03/06 03:32:29;;;;;;;2.03;1.73;;;;;;;;;;4950756;29;20019;-51
2024/03/06 03:34:55;;;;;;;1.50;1.40;;;;;;;;;;4954668;29;20058;-48
2024/03/06 03:37:21;;;;;;;1.42;1.33;;;;;;;;;;4955435;28;20027;-48
2024/03/06 03:39:48;;;;;;;1.20;1.10;;;;;;;;;;4954378;29;20118;-50
2024/03/06 03:42:14;;;;;;;1.55;1.45;;;;;;;;;;4951570;29;20115;-48
2024/03/06 03:44:40;;;;;;;1.45;1.35;;;;;;;;;;4936898;29;20036;-48
2024/03/06 03:47:06;;;;;;;1.50;1.40;;;;;;;;;;4943339;28;20031;-52
2024/03/06 03:49:33;;;;;;;1.40;1.30;;;;;;;;;;4941761;29;20024;-48
2024/03/06 03:51:59;;;;;;;1.88;1.40;;;;;;;;;;4946321;29;20837;-50
2024/03/06 03:54:26;;;;;;;1.23;1.15;;;;;;;;;;4945196;29;20035;-48
2024/03/06 03:56:53;;;;;;;1.50;1.40;;;;;;;;;;4938077;29;20487;-48
2024/03/06 03:59:20;;;;;;;1.60;1.50;;;;;;;;;;4937415;29;20110;-50
2024/03/06 04:01:50;;;;;;;2.00;1.30;;;;;;;;;;4953480;29;20564;-49
2024/03/06 04:04:16;;;;;;;1.40;1.10;;;;;;;;;;4954845;29;20254;-51
2024/03/06 04:06:42;;;;;;;1.30;1.20;;;;;;;;;;4953980;28;20035;-48
2024/03/06 04:09:10;;;;;;;1.40;1.30;;;;;;;;;;4943096;29;20035;-49
2024/03/06 04:11:39;;;;;;;2.47;1.60;;;;;;;;;;4953838;28;20031;-48
2024/03/06 04:14:06;;;;;;;2.22;1.67;;;;;;;;;;4935474;29;20039;-48
2024/03/06 04:16:32;;;;;;;1.95;1.65;;;;;;;;;;4941280;29;20043;-48
2024/03/06 04:18:59;;;;;;;3.25;1.90;;;;;;;;;;4955231;29;20478;-49
2024/03/06 04:21:25;;;;;;;2.20;2.00;;;;;;;;;;4947932;28;20028;-49
2024/03/06 04:23:51;;;;;;;2.35;1.75;;;;;;;;;;4935923;29;20390;-47
2024/03/06 04:26:17;;;;;;;3.30;2.17;;;;;;;;;;4946379;28;20020;-48
2024/03/06 04:28:44;;;;;;;3.77;2.20;;;;;;;;;;4934761;29;20040;-47
2024/03/06 04:31:10;;;;;;;2.65;2.22;;;;;;;;;;4944404;29;20122;-49
2024/03/06 04:33:37;;;;;;;3.47;2.27;;;;;;;;;;4954724;29;20486;-48
2024/03/06 04:36:07;;;;;;;3.83;2.67;;;;;;;;;;4954653;28;20361;-49
2024/03/06 04:38:33;;;;;;;7.10;3.00;;;;;;;;;;4950650;28;20028;-52
2024/03/06 04:40:59;;;;;;;3.67;3.07;;;;;;;;;;4935685;29;20031;-48
2024/03/06 04:43:25;;;;;;;5.15;3.72;;;;;;;;;;4935667;29;20258;-52
2024/03/06 04:45:52;;;;;;;5.40;4.63;;;;;;;;;;4940177;28;20040;-50
2024/03/06 04:48:18;;;;;;;4.82;4.35;;;;;;;;;;4943757;29;20060;-48
2024/03/06 04:50:44;;;;;;;5.43;4.93;;;;;;;;;;4935292;29;20039;-52
2024/03/06 04:53:11;;;;;;;5.00;4.50;;;;;;;;;;4937034;29;20066;-50
2024/03/06 04:55:37;;;;;;;5.97;5.35;;;;;;;;;;4954173;28;20035;-49
2024/03/06 04:58:03;;;;;;;8.05;6.05;;;;;;;;;;4949362;29;20510;-47
2024/03/06 05:00:30;;;;;;;6.00;5.40;;;;;;;;;;4936302;29;20442;-50
2024/03/06 05:02:56;;;;;;;6.20;5.63;;;;;;;;;;4935333;29;20027;-50
2024/03/06 05:05:22;;;;;;;6.83;6.13;;;;;;;;;;4935055;29;20255;-55
2024/03/06 05:07:49;;;;;;;6.23;5.60;;;;;;;;;;4934017;29;20504;-53
2024/03/06 05:10:16;;;;;;;9.75;6.43;;;;;;;;;;4933972;29;20032;-51
2024/03/06 05:12:42;;;;;;;6.82;6.03;;;;;;;;;;4935289;29;20036;-52
2024/03/06 05:15:09;;;;;;;7.47;6.22;;;;;;;;;;4933872;29;20305;-51
2024/03/06 05:17:35;;;;;;;6.60;5.80;;;;;;;;;;4935336;29;20573;-54
2024/03/06 05:20:03;;;;;;;6.97;5.82;;;;;;;;;;4935068;29;20024;-51
2024/03/06 05:22:29;;;;;;;6.88;6.18;;;;;;;;;;4935067;29;20023;-49
2024/03/06 05:24:55;;;;;;;6.32;5.72;;;;;;;;;;4935100;29;20024;-48
2024/03/06 05:27:22;;;;;;;6.80;6.10;;;;;;;;;;4933473;29;20406;-48
2024/03/06 05:29:48;;;;;;;7.88;5.47;;;;;;;;;;4934855;29;20038;-48
2024/03/06 05:32:14;;;;;;;7.50;6.25;;;;;;;;;;4934918;29;20030;-52
2024/03/06 05:34:41;;;;;;;7.37;6.37;;;;;;;;;;4934970;29;20032;-49
2024/03/06 05:37:07;;;;;;;7.30;5.93;;;;;;;;;;4934672;29;20040;-50
2024/03/06 05:39:34;;;;;;;6.75;5.93;;;;;;;;;;4934762;29;20557;-51
2024/03/06 05:42:02;;;;;;;6.55;5.60;;;;;;;;;;4934772;29;20483;-49
2024/03/06 05:44:29;;;;;;;6.72;5.55;;;;;;;;;;4934523;29;20062;-48
2024/03/06 05:46:56;;;;;;;8.20;6.55;;;;;;;;;;4934544;29;20035;-50
2024/03/06 05:49:22;;;;;;;7.67;6.27;;;;;;;;;;4934730;29;20034;-53
2024/03/06 05:51:48;;;;;;;6.80;6.10;;;;;;;;;;4934035;29;20266;-49
2024/03/06 05:54:14;;;;;;;6.95;5.97;;;;;;;;;;4934764;29;20095;-49
2024/03/06 05:56:42;;;;;;;17.17;5.97;;;;;;;;;;4934402;29;20039;-50
2024/03/06 05:59:08;;;;;;;6.28;4.90;;;;;;;;;;4934587;29;20031;-52
2024/03/06 06:01:36;;;;;;;6.30;5.43;;;;;;;;;;4934725;29;20497;-50
2024/03/06 06:04:03;;;;;;;5.75;4.97;;;;;;;;;;4933375;29;20031;-50
2024/03/06 06:06:30;;;;;;;7.28;5.90;;;;;;;;;;4933043;29;20426;-47
2024/03/06 06:08:56;;;;;;;5.57;5.00;;;;;;;;;;4934335;29;20503;-48
2024/03/06 06:11:22;;;;;;;4.75;4.28;;;;;;;;;;4934445;29;20090;-48
2024/03/06 06:13:48;;;;;;;4.35;3.90;;;;;;;;;;4933255;29;20135;-48
2024/03/06 06:16:14;;;;;;;3.88;3.47;;;;;;;;;;4932863;29;20036;-48
2024/03/06 06:18:41;;;;;;;3.75;3.42;;;;;;;;;;4934404;29;20020;-53
2024/03/06 06:21:08;;;;;;;;;;;;;;;;;;4933651;29;20035;-50
2024/03/06 06:23:34;;;;;;;2.80;2.60;;;;;;;;;;4934418;29;20416;-50
2024/03/06 06:26:00;;;;;;;2.85;2.58;;;;;;;;;;4934173;29;20031;-49
2024/03/06 06:28:27;;;;;;;2.85;2.55;;;;;;;;;;4934297;29;20122;-48
2024/03/06 06:30:54;;;;;;;2.83;2.63;;;;;;;;;;4934314;29;20046;-49
2024/03/06 06:33:23;;;;;;;3.42;2.35;;;;;;;;;;4934296;29;20031;-50
2024/03/06 06:35:49;;;;;;;2.90;2.28;;;;;;;;;;4934103;29;20028;-51
2024/03/06 06:38:15;;;;;;;2.25;2.05;;;;;;;;;;4934230;29;20095;-52
2024/03/06 06:40:42;;;;;;;1.77;1.67;;;;;;;;;;4934099;29;20031;-51
2024/03/06 06:43:08;;;;;;;2.22;2.13;;;;;;;;;;4934184;29;20075;-50
2024/03/06 06:45:34;;;;;;;2.47;2.28;;;;;;;;;;4934009;29;20032;-52
2024/03/06 06:48:00;;;;;;;2.60;2.40;;;;;;;;;;4932907;29;20425;-48
2024/03/06 06:50:27;;;;;;;2.23;2.03;;;;;;;;;;4934239;29;20060;-47
2024/03/06 06:52:53;;;;;;;2.22;2.03;;;;;;;;;;4934162;29;20031;-48
2024/03/06 06:55:22;;;;;;;1.63;1.47;;;;;;;;;;4933911;29;20028;-52
2024/03/06 06:57:49;;;;;;;2.45;1.38;;;;;;;;;;4932659;29;20043;-49
2024/03/06 07:00:18;;;;;;;7.13;1.65;;;;;;;;;;4934026;29;20031;-47
2024/03/06 07:02:45;;;;;;;1.65;1.45;;;;;;;;;;4934817;29;20660;-49
2024/03/06 07:05:12;;;;;;;1.45;1.35;;;;;;;;;;4937557;29;20024;-49
2024/03/06 07:07:38;;;;;;;3.15;1.63;;;;;;;;;;4936299;29;20106;-50
2024/03/06 07:10:05;;;;;;;1.60;1.50;;;;;;;;;;4937507;29;20394;-49
2024/03/06 07:12:32;;;;;;;1.40;1.30;;;;;;;;;;4937514;29;20070;-52
2024/03/06 07:15:05;;;;;;;1.33;1.10;;;;;;;;;;4937412;29;20063;-50
2024/03/06 07:17:31;;;;;;;1.20;1.15;;;;;;;;;;4937151;29;20042;-49
2024/03/06 07:19:57;;;;;;;1.40;1.30;;;;;;;;;;4958629;28;20026;-47
2024/03/06 07:22:23;;;;;;;1.27;1.13;;;;;;;;;;4957964;28;20027;-58
2024/03/06 07:24:50;;;;;;;2.08;1.08;;;;;;;;;;4956041;28;20043;-58
2024/03/06 07:27:16;;;;;;;1.10;1.02;;;;;;;;;;4956113;28;20058;-49
2024/03/06 07:29:42;;;;;;;1.37;1.10;;;;;;;;;;4955941;28;20037;-48
2024/03/06 07:32:08;;;;;;;1.08;0.98;;;;;;;;;;4956183;28;20167;-49
2024/03/06 07:34:34;;;;;;;2.63;1.00;;;;;;;;;;4938617;29;20035;-48
2024/03/06 07:37:01;;;;;;;1.08;0.80;;;;;;;;;;4955802;28;20031;-48
2024/03/06 07:39:27;;;;;;;2.00;1.30;;;;;;;;;;4955755;28;20055;-50
2024/03/06 07:41:54;;;;;;;1.33;1.15;;;;;;;;;;4955905;29;20030;-48
2024/03/06 07:44:20;;;;;;;1.13;0.75;;;;;;;;;;4955814;29;20027;-53
2024/03/06 07:46:47;;;;;;;1.10;1.00;;;;;;;;;;4955635;28;20066;-50
2024/03/06 07:49:13;;;;;;;2.55;0.80;;;;;;;;;;4955897;29;20263;-50
2024/03/06 07:51:40;;;;;;;2.77;1.23;;;;;;;;;;4954042;28;20102;-51
2024/03/06 07:54:07;;;;;;;1.13;1.02;;;;;;;;;;4956038;28;20035;-49
2024/03/06 07:56:34;;;;;;;8.00;1.57;;;;;;;;;;4955130;28;20027;-49
2024/03/06 07:59:01;;;;;;;1.83;1.50;;;;;;;;;;4956130;28;20378;-49
2024/03/06 08:01:28;;;;;;;3.17;1.00;;;;;;;;;;4953946;29;20027;-49
2024/03/06 08:03:55;;;;;;;1.10;1.00;;;;;;;;;;4954348;29;20512;-48
2024/03/06 08:06:21;;;;;;;1.23;1.13;;;;;;;;;;4954910;28;20028;-49
2024/03/06 08:08:47;;;;;;;0.82;0.82;;;;;;;;;;4955673;29;20267;-48
2024/03/06 08:11:14;;;;;;;1.63;0.97;;;;;;;;;;4932347;29;20035;-49
2024/03/06 08:13:41;;;;;;;1.83;1.00;;;;;;;;;;4954262;29;20023;-54
2024/03/06 08:16:07;;;;;;;1.25;0.88;;;;;;;;;;4955448;28;20549;-54
2024/03/06 08:18:34;;;;;;;3.97;1.10;;;;;;;;;;4955354;28;20031;-53
2024/03/06 08:21:01;;;;;;;2.92;2.08;;;;;;;;;;4954827;28;20027;-48
2024/03/06 08:23:27;;;;;;;1.20;1.10;;;;;;;;;;4955346;28;20024;-49
2024/03/06 08:25:53;;;;;;;1.53;1.40;;;;;;;;;;4954660;28;20392;-50
2024/03/06 08:28:19;;;;;;;1.07;1.00;;;;;;;;;;4953992;29;20059;-48
2024/03/06 08:30:46;;;;;;;1.30;1.17;;;;;;;;;;4954628;29;20093;-53
2024/03/06 08:33:12;;;;;;;4.72;1.40;;;;;;;;;;4955102;28;20034;-50
2024/03/06 08:35:40;;;;;;;1.70;1.47;;;;;;;;;;4947652;29;20103;-51
2024/03/06 08:38:06;;;;;;;1.60;1.08;;;;;;;;;;4955008;28;20505;-50
2024/03/06 08:40:33;;;;;;;2.65;1.35;;;;;;;;;;4954574;29;20031;-49
2024/03/06 08:42:59;;;;;;;1.85;1.63;;;;;;;;;;4955134;28;20028;-53
2024/03/06 08:45:25;;;;;;;5.50;1.80;;;;;;;;;;4954148;28;20058;-51
2024/03/06 08:47:53;;;;;;;4.20;2.67;;;;;;;;;;4954866;29;20126;-49
2024/03/06 08:50:20;;;;;;;3.20;2.35;;;;;;;;;;4953019;28;20031;-51
2024/03/06 08:52:47;;;;;;;6.63;3.40;;;;;;;;;;4953544;28;20035;-49
2024/03/06 08:55:13;;;;;;;3.78;3.22;;;;;;;;;;4954522;28;20035;-48
2024/03/06 08:57:40;;;;;;;6.07;4.80;;;;;;;;;;4946608;28;20040;-52
2024/03/06 09:00:10;;;;;;;6.15;4.40;;;;;;;;;;4935331;29;20057;-49
2024/03/06 09:02:43;;;;;;;5.28;3.22;;;;;;;;;;4935121;29;20807;-53
2024/03/06 09:05:10;;;;;;;6.00;4.85;;;;;;;;;;4935351;29;20490;-49
2024/03/06 09:07:40;;;;;;;9.75;5.57;;;;;;;;;;4935353;29;20039;-50
2024/03/06 09:10:11;;;;;;;7.82;5.38;;;;;;;;;;4934264;29;20065;-48
2024/03/06 09:12:37;;;;;;;8.30;5.50;;;;;;;;;;4934006;29;20031;-50
2024/03/06 09:15:04;;;;;;;8.23;6.03;;;;;;;;;;4935151;29;20039;-49
2024/03/06 09:17:30;;;;;;;8.02;6.57;;;;;;;;;;4935017;29;20043;-49
2024/03/06 09:19:56;;;;;;;12.75;6.85;;;;;;;;;;4935229;29;20028;-53
2024/03/06 09:22:23;;;;;;;8.60;7.63;;;;;;;;;;4935268;29;20028;-50
2024/03/06 09:24:49;;;;;;;9.27;7.47;;;;;;;;;;4933929;29;20063;-50
2024/03/06 09:27:16;;;;;;;9.55;7.38;;;;;;;;;;4933938;29;20027;-53
2024/03/06 09:29:42;;;;;;;;;;;;;;;;;;4935419;29;20035;-48
2024/03/06 09:32:09;;;;;;;10.27;8.15;;;;;;;;;;4933845;29;20369;-49
2024/03/06 09:34:36;;;;;;;12.70;9.47;;;;;;;;;;4935041;29;20041;-52
2024/03/06 09:37:03;;;;;;;11.40;7.20;;;;;;;;;;4933319;29;20035;-48
2024/03/06 09:39:29;;;;;;;8.18;6.63;;;;;;;;;;4934747;29;20074;-48
2024/03/06 09:41:56;;;;;;;7.28;5.60;;;;;;;;;;4933569;29;20102;-48
2024/03/06 09:44:23;;;;;;;10.05;7.00;;;;;;;;;;4933538;29;20040;-49
2024/03/06 09:46:50;;;;;;;8.88;6.90;;;;;;;;;;4934514;29;20086;-46
2024/03/06 09:49:17;;;;;;;11.20;9.18;;;;;;;;;;4934751;29;20047;-50
2024/03/06 09:51:53;;;;;;;8.27;6.97;;;;;;;;;;4934675;29;20103;-50
2024/03/06 09:54:20;;;;;;;11.00;7.50;;;;;;;;;;4934619;29;20032;-51
2024/03/06 09:56:49;;;;;;;9.82;7.35;;;;;;;;;;4934246;29;20119;-50
2024/03/06 09:59:16;;;;;;;9.02;6.60;;;;;;;;;;4934486;29;20502;-50
2024/03/06 10:01:50;;;;;;;8.30;6.83;;;;;;;;;;4934467;29;20031;-48
2024/03/06 10:04:27;;;;;;;9.25;7.65;;;;;;;;;;4933238;29;20035;-50
2024/03/06 10:06:54;;;;;;;7.88;6.63;;;;;;;;;;4934194;29;20048;-50
2024/03/06 10:09:21;;;;;;;9.30;6.53;;;;;;;;;;4933440;29;20479;-52
2024/03/06 10:11:48;;;;;;;9.90;7.50;;;;;;;;;;4934432;29;20035;-49
2024/03/06 10:14:14;;;;;;;9.70;6.97;;;;;;;;;;4934434;29;20487;-47
2024/03/06 10:17:01;;;;;;;7.45;6.75;;;;;;;;;;4934043;29;20028;-50
2024/03/06 10:19:28;;;;;;;7.78;6.97;;;;;;;;;;4934275;29;20028;-50
2024/03/06 10:21:55;;;;;;;7.75;6.53;;;;;;;;;;4933251;29;20036;-50
2024/03/06 10:24:23;;;;;;;9.48;6.13;;;;;;;;;;4933055;29;20027;-49
2024/03/06 10:26:51;;;;;;;9.00;6.70;;;;;;;;;;4934034;29;20475;-50
2024/03/06 10:29:18;;;;;;;8.40;7.20;;;;;;;;;;4934332;29;20367;-50
2024/03/06 10:32:02;;;;;;;9.60;7.38;;;;;;;;;;4934169;29;20047;-51
2024/03/06 10:34:29;;;;;;;8.77;7.70;;;;;;;;;;4934234;29;20036;-51
2024/03/06 10:36:56;;;;;;;10.00;6.72;;;;;;;;;;4934283;29;20042;-52
2024/03/06 10:39:22;;;;;;;;;;;;;;;;;;4936873;29;20132;-50
2024/03/06 10:41:52;;;;;;;8.30;7.45;;;;;;;;;;4937952;29;19910;-49
2024/03/06 10:44:21;;;;;;;9.95;7.28;;;;;;;;;;4920770;29;20028;-47
2024/03/06 10:46:49;;;;;;;9.30;6.35;;;;;;;;;;4920463;29;20031;-49
2024/03/06 10:49:15;;;;;;;;;;;;;;;;;;4921210;29;20545;-49
2024/03/06 10:51:43;;;;;;;7.25;6.13;;;;;;;;;;4938013;29;19911;-51
2024/03/06 10:54:11;;;;;;;7.90;6.05;;;;;;;;;;4937776;29;20046;-48
2024/03/06 10:56:39;;;;;;;8.25;6.95;;;;;;;;;;4936107;29;20387;-48
2024/03/06 10:59:07;;;;;;;7.93;6.05;;;;;;;;;;4936297;29;20038;-47
2024/03/06 11:01:34;;;;;;;6.38;5.55;;;;;;;;;;4937606;29;20546;-50
2024/03/06 11:04:01;;;;;;;9.35;6.20;;;;;;;;;;4936336;29;20035;-49
2024/03/06 11:06:27;;;;;;;8.57;6.07;;;;;;;;;;4937603;29;20412;-50
2024/03/06 11:08:53;;;;;;;7.20;5.57;;;;;;;;;;4937530;29;20299;-49
2024/03/06 11:11:21;;;;;;;7.67;5.57;;;;;;;;;;4937303;29;20499;-49
2024/03/06 11:13:47;;;;;;;6.63;5.88;;;;;;;;;;4937372;29;20750;-52
2024/03/06 11:16:13;;;;;;;11.20;5.75;;;;;;;;;;4962466;23;20049;-52
2024/03/06 11:18:42;;;;;;;5.20;4.60;;;;;;;;;;4995073;28;20051;-50
2024/03/06 11:21:08;;;;;;;;;;;;;;;;;;4995710;28;20037;-47
2024/03/06 11:23:34;;;;;;;5.10;4.55;;;;;;;;;;4995254;28;19945;-49
2024/03/06 11:26:03;;;;;;;21.50;5.93;;;;;;;;;;4984191;28;20026;-48
2024/03/06 11:28:30;;;;;;;5.90;4.60;;;;;;;;;;4981751;28;20703;-49
2024/03/06 11:30:59;;;;;;;4.80;4.13;;;;;;;;;;4993580;28;20113;-48
2024/03/06 11:33:36;;;;;;;5.45;4.55;;;;;;;;;;4989824;28;20444;-50
2024/03/06 11:36:17;;;;;;;5.32;4.03;;;;;;;;;;4975391;28;20038;-49
2024/03/06 11:39:04;;;;;;;8.05;4.63;;;;;;;;;;4975125;28;20035;-51
2024/03/06 11:41:31;;;;;;;4.97;3.97;;;;;;;;;;4985338;28;20027;-50
2024/03/06 11:43:57;;;;;;;;;;;;;;;;;;4981493;28;20037;-49
2024/03/06 11:46:24;;;;;;;5.35;4.07;;;;;;;;;;4983917;28;19925;-48
2024/03/06 11:48:54;;;;;;;8.43;4.47;;;;;;;;;;4992030;28;20033;-49
2024/03/06 11:51:20;;;;;;;4.78;3.55;;;;;;;;;;4974141;28;20030;-49
2024/03/06 11:53:49;;;;;;;5.22;3.72;;;;;;;;;;4976587;28;20099;-49
2024/03/06 11:56:16;;;;;;;4.00;2.97;;;;;;;;;;4976719;28;20031;-49
2024/03/06 11:58:42;;;;;;;4.00;2.92;;;;;;;;;;4965740;28;20034;-51
2024/03/06 12:01:09;;;;;;;6.97;2.80;;;;;;;;;;4987931;28;20077;-50
2024/03/06 12:03:35;;;;;;;3.92;2.90;;;;;;;;;;4979255;28;20026;-48
2024/03/06 12:06:02;;;;;;;5.35;3.50;;;;;;;;;;4992633;28;20043;-49
2024/03/06 12:08:28;;;;;;;3.03;2.53;;;;;;;;;;4992739;28;20496;-49
2024/03/06 12:10:58;;;;;;;4.37;2.70;;;;;;;;;;4990853;28;20044;-49
2024/03/06 12:13:25;;;;;;;65.68;45.25;;;;;;;;;;4992635;28;20456;-49
2024/03/06 12:15:51;;;;;;;21.63;15.20;;;;;;;;;;4990114;28;20026;-49
2024/03/06 12:18:20;;;;;;;3.17;2.43;;;;;;;;;;4987495;28;20061;-49
2024/03/06 12:20:48;;;;;;;5.60;4.38;;;;;;;;;;4984802;28;20284;-50
2024/03/06 12:23:22;;;;;;;7.03;4.10;;;;;;;;;;4977014;28;20514;-51
2024/03/06 12:25:49;;;;;;;6.65;4.40;;;;;;;;;;4987830;28;20157;-51
2024/03/06 12:28:15;;;;;;;6.80;4.70;;;;;;;;;;4991307;28;20066;-50
2024/03/06 12:30:42;;;;;;;9.40;4.70;;;;;;;;;;4981179;28;20030;-49
2024/03/06 12:33:09;;;;;;;11.30;5.55;;;;;;;;;;4973557;28;20101;-49
2024/03/06 12:35:37;;;;;;;10.00;5.15;;;;;;;;;;4973040;28;20456;-49
2024/03/06 12:38:12;;;;;;;6.30;4.40;;;;;;;;;;4971558;28;20046;-51
2024/03/06 12:40:39;;;;;;;7.07;5.05;;;;;;;;;;4976923;28;20057;-49
2024/03/06 12:43:05;;;;;;;6.20;4.07;;;;;;;;;;4973136;28;20037;-50
2024/03/06 12:45:31;;;;;;;7.97;4.63;;;;;;;;;;4985895;28;20023;-49
2024/03/06 12:47:57;;;;;;;6.22;4.78;;;;;;;;;;4972588;28;20042;-50
2024/03/06 12:50:24;;;;;;;7.93;4.73;;;;;;;;;;4976133;28;20030;-49
2024/03/06 12:52:52;;;;;;;9.13;4.53;;;;;;;;;;4990713;28;20305;-49
2024/03/06 12:55:18;;;;;;;7.03;4.97;;;;;;;;;;4991728;28;20440;-49
2024/03/06 12:57:45;;;;;;;9.13;5.40;;;;;;;;;;4991649;28;20099;-51
2024/03/06 13:00:15;;;;;;;;;;;;;;;;;;4979670;28;20496;-50
2024/03/06 13:02:45;;;;;;;11.15;5.43;;;;;;;;;;4971142;28;20365;-49
2024/03/06 13:05:13;;;;;;;12.07;5.03;;;;;;;;;;4979918;28;20026;-50
2024/03/06 13:07:41;;;;;;;13.07;8.70;;;;;;;;;;4991640;28;20125;-50
2024/03/06 13:10:10;;;;;;;10.45;8.60;;;;;;;;;;4988134;28;20516;-50
2024/03/06 13:12:37;;;;;;;9.57;7.55;;;;;;;;;;4980966;28;20567;-50
2024/03/06 13:15:04;;;;;;;9.57;7.72;;;;;;;;;;4988161;28;20034;-51
2024/03/06 13:17:30;;;;;;;10.07;7.97;;;;;;;;;;4987919;28;20504;-51
2024/03/06 13:19:56;;;;;;;13.90;8.00;;;;;;;;;;4990150;28;20030;-50
2024/03/06 13:22:23;;;;;;;9.23;6.60;;;;;;;;;;4972195;28;20057;-53
2024/03/06 13:24:49;;;;;;;7.88;6.28;;;;;;;;;;4972109;28;20154;-52
2024/03/06 13:27:17;;;;;;;10.15;6.22;;;;;;;;;;4971977;28;20083;-51
2024/03/06 13:29:43;;;;;;;10.02;5.88;;;;;;;;;;4987356;28;20037;-51
2024/03/06 13:32:09;;;;;;;11.13;6.50;;;;;;;;;;4956282;28;20031;-51
2024/03/06 13:34:36;;;;;;;9.85;6.88;;;;;;;;;;4970666;28;20074;-51
2024/03/06 13:37:02;;;;;;;13.98;6.15;;;;;;;;;;4971511;28;20035;-50
2024/03/06 13:39:28;;;;;;;11.20;5.88;;;;;;;;;;4970308;28;20535;-51
2024/03/06 13:41:54;;;;;;;9.98;5.43;;;;;;;;;;4981670;28;20034;-52
2024/03/06 13:44:21;;;;;;;8.32;5.75;;;;;;;;;;4959811;28;20117;-50
2024/03/06 13:46:47;;;;;;;11.95;6.75;;;;;;;;;;4979477;28;20041;-51
2024/03/06 13:49:33;;;;;;;9.20;5.72;;;;;;;;;;4979075;28;20042;-48
2024/03/06 13:51:59;;;;;;;8.07;5.55;;;;;;;;;;4973088;28;20034;-51
2024/03/06 13:54:25;;;;;;;7.50;4.87;;;;;;;;;;4988212;28;20023;-52
2024/03/06 13:56:54;;;;;;;12.15;5.15;;;;;;;;;;4972768;28;20034;-50
2024/03/06 13:59:20;;;;;;;9.82;4.78;;;;;;;;;;4973056;28;20034;-51
2024/03/06 14:01:48;;;;;;;8.98;5.60;;;;;;;;;;4971860;28;20066;-49
2024/03/06 14:04:15;;;;;;;10.85;5.82;;;;;;;;;;4976064;28;20014;-48
2024/03/06 14:06:41;;;;;;;11.23;5.15;;;;;;;;;;4992073;28;20089;-49
2024/03/06 14:09:07;;;;;;;13.57;5.97;;;;;;;;;;4992440;28;20053;-51
2024/03/06 14:11:35;;;;;;;10.25;4.18;;;;;;;;;;4992363;28;20122;-50
2024/03/06 14:14:01;;;;;;;8.45;3.17;;;;;;;;;;4991911;28;20022;-48
2024/03/06 14:16:27;;;;;;;2.22;1.10;;;;;;;;;;4992042;28;20027;-48
2024/03/06 14:18:55;;;;;;;5.35;1.67;;;;;;;;;;4992179;28;20038;-48
2024/03/06 14:21:21;;;;;;;6.38;2.50;;;;;;;;;;4990882;28;20404;-54
2024/03/06 14:23:48;;;;;;;6.00;2.63;;;;;;;;;;4991006;28;20041;-49
2024/03/06 14:26:14;;;;;;;4.97;2.73;;;;;;;;;;4991378;28;20033;-52
2024/03/06 14:28:40;;;;;;;17.93;3.20;;;;;;;;;;4980658;28;20364;-53
2024/03/06 14:31:06;;;;;;;9.20;2.70;;;;;;;;;;4978554;28;20162;-50
2024/03/06 14:33:32;;;;;;;6.05;3.00;;;;;;;;;;4980635;28;20038;-49
2024/03/06 14:35:59;;;;;;;5.07;2.40;;;;;;;;;;4985264;28;20033;-50
2024/03/06 14:38:25;;;;;;;8.40;6.03;;;;;;;;;;4992046;28;20034;-51
2024/03/06 14:40:51;;;;;;;8.07;4.73;;;;;;;;;;4992011;28;20081;-49
2024/03/06 14:43:17;;;;;;;5.67;2.87;;;;;;;;;;4991022;28;20022;-53
2024/03/06 14:45:46;;;;;;;7.20;2.90;;;;;;;;;;4990514;28;20120;-52